sensor_id;sensor_type;location;lat;lon;timestamp;pressure;altitude;pressure_sealevel;temperature;humidity
12722;BME280;6425;50.316;8.114;2023-08-12T00:00:00;992;;;21;74.3
12722;BME280;6425;50.316;8.114;2023-08-12T00:03:00;992;;;20.9;75.4
12722;BME280;6425;50.316;8.114;2023-08-12T00:06:00;992;;;20.9;75.2
12722;BME280;6425;50.316;8.114;2023-08-12T00:09:00;992;;;20.8;74.8
12722;BME280;6425;50.316;8.114;2023-08-12T00:12:00;992;;;20.6;76.9
12722;BME280;6425;50.316;8.114;2023-08-12T00:15:00;992;;;20.7;76.4
12722;BME280;6425;50.316;8.114;2023-08-12T00:18:00;992;;;20.6;76.9
12722;BME280;6425;50.316;8.114;2023-08-12T00:21:00;992;;;20.4;77.6
12722;BME280;6425;50.316;8.114;2023-08-12T00:24:00;992;;;20.1;79.5
12722;BME280;6425;50.316;8.114;2023-08-12T00:27:00;992;;;19.9;80.4
12722;BME280;6425;50.316;8.114;2023-08-12T00:30:00;992;;;18.9;86.1
12722;BME280;6425;50.316;8.114;2023-08-12T00:33:00;992;;;18.4;91.5
12722;BME280;6425;50.316;8.114;2023-08-12T00:36:01;992;;;18.3;94
12722;BME280;6425;50.316;8.114;2023-08-12T00:39:00;992;;;18.4;94.5
12722;BME280;6425;50.316;8.114;2023-08-12T00:42:00;992;;;18.9;92.7
12722;BME280;6425;50.316;8.114;2023-08-12T00:45:00;992;;;19.1;90.2
12722;BME280;6425;50.316;8.114;2023-08-12T00:48:00;992;;;19.4;88.7
12722;BME280;6425;50.316;8.114;2023-08-12T00:51:00;992;;;19.8;86.4
12722;BME280;6425;50.316;8.114;2023-08-12T00:54:00;992;;;20.2;84.3
12722;BME280;6425;50.316;8.114;2023-08-12T00:57:00;992;;;20.3;83
12722;BME280;6425;50.316;8.114;2023-08-12T01:00:00;992;;;19.8;85.1
12722;BME280;6425;50.316;8.114;2023-08-12T01:03:00;992;;;18.9;90.8
12722;BME280;6425;50.316;8.114;2023-08-12T01:06:00;992;;;18.5;94.9
12722;BME280;6425;50.316;8.114;2023-08-12T01:09:00;992;;;19;94
12722;BME280;6425;50.316;8.114;2023-08-12T01:12:01;992;;;19.2;91
12722;BME280;6425;50.316;8.114;2023-08-12T01:15:01;992;;;19.3;89.9
12722;BME280;6425;50.316;8.114;2023-08-12T01:18:00;992;;;19.4;88.9
12722;BME280;6425;50.316;8.114;2023-08-12T01:21:00;992;;;19.6;88.5
12722;BME280;6425;50.316;8.114;2023-08-12T01:24:00;992;;;19.6;87.9
12722;BME280;6425;50.316;8.114;2023-08-12T01:27:00;992;;;20;85.7
12722;BME280;6425;50.316;8.114;2023-08-12T01:30:00;992;;;20.4;83.9
12722;BME280;6425;50.316;8.114;2023-08-12T01:33:00;992;;;20.4;83
12722;BME280;6425;50.316;8.114;2023-08-12T01:36:03;992;;;20.4;83.1
12722;BME280;6425;50.316;8.114;2023-08-12T01:39:00;992;;;20.6;82.3
12722;BME280;6425;50.316;8.114;2023-08-12T01:42:00;992;;;20;86.1
12722;BME280;6425;50.316;8.114;2023-08-12T01:45:00;992;;;19.9;89.1
12722;BME280;6425;50.316;8.114;2023-08-12T01:48:00;992;;;19.7;90.1
12722;BME280;6425;50.316;8.114;2023-08-12T01:51:00;992;;;19.9;91.6
12722;BME280;6425;50.316;8.114;2023-08-12T01:54:00;992;;;19.9;92.4
12722;BME280;6425;50.316;8.114;2023-08-12T01:57:00;992;;;19.6;96.3
12722;BME280;6425;50.316;8.114;2023-08-12T02:00:00;992;;;19.5;99.6
12722;BME280;6425;50.316;8.114;2023-08-12T02:03:00;992;;;19.7;99.8
12722;BME280;6425;50.316;8.114;2023-08-12T02:06:00;992;;;19.7;100
12722;BME280;6425;50.316;8.114;2023-08-12T02:09:00;992;;;19.8;100
12722;BME280;6425;50.316;8.114;2023-08-12T02:12:00;992;;;19.4;100
12722;BME280;6425;50.316;8.114;2023-08-12T02:15:00;992;;;19.7;100
12722;BME280;6425;50.316;8.114;2023-08-12T02:18:00;992;;;19.9;100
12722;BME280;6425;50.316;8.114;2023-08-12T02:21:00;992;;;19.7;100
12722;BME280;6425;50.316;8.114;2023-08-12T02:24:00;993;;;19.5;100
12722;BME280;6425;50.316;8.114;2023-08-12T02:27:00;993;;;19.2;100
12722;BME280;6425;50.316;8.114;2023-08-12T02:30:00;993;;;19.1;100
12722;BME280;6425;50.316;8.114;2023-08-12T02:33:00;993;;;19;100
12722;BME280;6425;50.316;8.114;2023-08-12T02:36:00;993;;;19;100
12722;BME280;6425;50.316;8.114;2023-08-12T02:39:00;993;;;19.1;100
12722;BME280;6425;50.316;8.114;2023-08-12T02:42:00;993;;;19.4;100
12722;BME280;6425;50.316;8.114;2023-08-12T02:45:00;993;;;19.1;100
12722;BME280;6425;50.316;8.114;2023-08-12T02:48:00;993;;;19.1;100
12722;BME280;6425;50.316;8.114;2023-08-12T02:51:00;993;;;19.1;100
12722;BME280;6425;50.316;8.114;2023-08-12T02:54:00;993;;;19.3;100
12722;BME280;6425;50.316;8.114;2023-08-12T02:57:00;993;;;19.6;100
12722;BME280;6425;50.316;8.114;2023-08-12T03:00:00;993;;;20;100
12722;BME280;6425;50.316;8.114;2023-08-12T03:03:00;993;;;20.1;100
12722;BME280;6425;50.316;8.114;2023-08-12T03:06:00;992;;;20.2;100
12722;BME280;6425;50.316;8.114;2023-08-12T03:09:00;992;;;20.2;100
12722;BME280;6425;50.316;8.114;2023-08-12T03:12:00;992;;;20.1;100
12722;BME280;6425;50.316;8.114;2023-08-12T03:15:00;992;;;20.1;100
12722;BME280;6425;50.316;8.114;2023-08-12T03:18:00;992;;;20.2;100
12722;BME280;6425;50.316;8.114;2023-08-12T03:21:00;992;;;19.9;100
12722;BME280;6425;50.316;8.114;2023-08-12T03:24:00;992;;;20.1;100
12722;BME280;6425;50.316;8.114;2023-08-12T03:27:00;992;;;20;100
12722;BME280;6425;50.316;8.114;2023-08-12T03:30:00;992;;;20.1;100
12722;BME280;6425;50.316;8.114;2023-08-12T03:33:00;992;;;20.3;100
12722;BME280;6425;50.316;8.114;2023-08-12T03:36:00;992;;;20.1;100
12722;BME280;6425;50.316;8.114;2023-08-12T03:39:00;992;;;19.9;100
12722;BME280;6425;50.316;8.114;2023-08-12T03:42:00;992;;;19.8;100
12722;BME280;6425;50.316;8.114;2023-08-12T03:45:00;992;;;19.7;100
12722;BME280;6425;50.316;8.114;2023-08-12T03:48:00;992;;;19.7;100
12722;BME280;6425;50.316;8.114;2023-08-12T03:51:00;992;;;19.9;100
12722;BME280;6425;50.316;8.114;2023-08-12T03:54:00;992;;;20;100
12722;BME280;6425;50.316;8.114;2023-08-12T03:57:00;992;;;20.3;100
12722;BME280;6425;50.316;8.114;2023-08-12T04:00:00;992;;;20.5;100
12722;BME280;6425;50.316;8.114;2023-08-12T04:03:00;992;;;20.7;100
12722;BME280;6425;50.316;8.114;2023-08-12T04:06:00;992;;;20.9;100
12722;BME280;6425;50.316;8.114;2023-08-12T04:09:00;991;;;20.9;100
12722;BME280;6425;50.316;8.114;2023-08-12T04:12:00;991;;;20.9;100
12722;BME280;6425;50.316;8.114;2023-08-12T04:15:00;991;;;20.9;100
12722;BME280;6425;50.316;8.114;2023-08-12T04:18:00;991;;;20.8;100
12722;BME280;6425;50.316;8.114;2023-08-12T04:21:00;992;;;20.5;100
12722;BME280;6425;50.316;8.114;2023-08-12T04:24:00;992;;;20.2;100
12722;BME280;6425;50.316;8.114;2023-08-12T04:27:00;992;;;20.1;100
12722;BME280;6425;50.316;8.114;2023-08-12T04:30:00;991;;;20.4;100
12722;BME280;6425;50.316;8.114;2023-08-12T04:33:00;991;;;20.5;100
12722;BME280;6425;50.316;8.114;2023-08-12T04:36:00;991;;;20.4;100
12722;BME280;6425;50.316;8.114;2023-08-12T04:39:00;991;;;20.2;100
12722;BME280;6425;50.316;8.114;2023-08-12T04:42:00;991;;;20.1;100
12722;BME280;6425;50.316;8.114;2023-08-12T04:45:00;991;;;20.2;100
12722;BME280;6425;50.316;8.114;2023-08-12T04:48:00;991;;;19.8;100
12722;BME280;6425;50.316;8.114;2023-08-12T04:51:00;991;;;19.8;100
12722;BME280;6425;50.316;8.114;2023-08-12T04:54:00;991;;;20;100
12722;BME280;6425;50.316;8.114;2023-08-12T04:57:00;991;;;20.3;100
12722;BME280;6425;50.316;8.114;2023-08-12T05:00:00;991;;;20.4;100
12722;BME280;6425;50.316;8.114;2023-08-12T05:03:00;991;;;20.2;100
12722;BME280;6425;50.316;8.114;2023-08-12T05:06:00;991;;;20.3;100
12722;BME280;6425;50.316;8.114;2023-08-12T05:09:00;991;;;20.4;100
12722;BME280;6425;50.316;8.114;2023-08-12T05:12:00;991;;;20.3;100
12722;BME280;6425;50.316;8.114;2023-08-12T05:15:00;991;;;20.1;100
12722;BME280;6425;50.316;8.114;2023-08-12T05:18:00;991;;;20.5;100
12722;BME280;6425;50.316;8.114;2023-08-12T05:21:00;991;;;20.7;100
12722;BME280;6425;50.316;8.114;2023-08-12T05:24:00;991;;;20.8;100
12722;BME280;6425;50.316;8.114;2023-08-12T05:27:00;991;;;20.8;100
12722;BME280;6425;50.316;8.114;2023-08-12T05:30:00;991;;;20.8;100
12722;BME280;6425;50.316;8.114;2023-08-12T05:33:00;991;;;20.8;100
12722;BME280;6425;50.316;8.114;2023-08-12T05:36:00;991;;;20.8;100
12722;BME280;6425;50.316;8.114;2023-08-12T05:39:00;991;;;20.9;100
12722;BME280;6425;50.316;8.114;2023-08-12T05:42:00;991;;;20.7;100
12722;BME280;6425;50.316;8.114;2023-08-12T05:45:00;991;;;20;100
12722;BME280;6425;50.316;8.114;2023-08-12T05:48:00;991;;;19.4;100
12722;BME280;6425;50.316;8.114;2023-08-12T05:51:00;991;;;19.5;100
12722;BME280;6425;50.316;8.114;2023-08-12T05:54:00;991;;;19.5;100
12722;BME280;6425;50.316;8.114;2023-08-12T05:57:00;991;;;19.4;100
12722;BME280;6425;50.316;8.114;2023-08-12T06:00:00;991;;;19.6;100
12722;BME280;6425;50.316;8.114;2023-08-12T06:03:00;991;;;19.4;100
12722;BME280;6425;50.316;8.114;2023-08-12T06:06:00;991;;;19.6;100
12722;BME280;6425;50.316;8.114;2023-08-12T06:09:00;991;;;19.5;100
12722;BME280;6425;50.316;8.114;2023-08-12T06:12:00;991;;;19.9;100
12722;BME280;6425;50.316;8.114;2023-08-12T06:15:00;991;;;20.4;100
12722;BME280;6425;50.316;8.114;2023-08-12T06:18:00;991;;;20.5;100
12722;BME280;6425;50.316;8.114;2023-08-12T06:21:00;991;;;20.9;100
12722;BME280;6425;50.316;8.114;2023-08-12T06:24:00;991;;;21.2;100
12722;BME280;6425;50.316;8.114;2023-08-12T06:27:00;991;;;20.8;100
12722;BME280;6425;50.316;8.114;2023-08-12T06:30:00;992;;;20.6;100
12722;BME280;6425;50.316;8.114;2023-08-12T06:33:00;991;;;20.7;100
12722;BME280;6425;50.316;8.114;2023-08-12T06:36:00;992;;;20.4;100
12722;BME280;6425;50.316;8.114;2023-08-12T06:39:00;992;;;20;100
12722;BME280;6425;50.316;8.114;2023-08-12T06:42:00;992;;;20;100
12722;BME280;6425;50.316;8.114;2023-08-12T06:45:00;992;;;20.3;100
12722;BME280;6425;50.316;8.114;2023-08-12T06:48:00;992;;;21;100
12722;BME280;6425;50.316;8.114;2023-08-12T06:51:00;992;;;21.1;100
12722;BME280;6425;50.316;8.114;2023-08-12T06:54:00;992;;;21.3;100
12722;BME280;6425;50.316;8.114;2023-08-12T06:57:00;992;;;21;100
12722;BME280;6425;50.316;8.114;2023-08-12T07:00:00;992;;;21.2;100
12722;BME280;6425;50.316;8.114;2023-08-12T07:03:00;992;;;21;100
12722;BME280;6425;50.316;8.114;2023-08-12T07:06:00;992;;;21.2;100
12722;BME280;6425;50.316;8.114;2023-08-12T07:09:00;992;;;21.3;100
12722;BME280;6425;50.316;8.114;2023-08-12T07:12:00;992;;;21.2;100
12722;BME280;6425;50.316;8.114;2023-08-12T07:15:00;992;;;21.7;100
12722;BME280;6425;50.316;8.114;2023-08-12T07:18:00;992;;;22.2;98.2
12722;BME280;6425;50.316;8.114;2023-08-12T07:21:00;992;;;22.1;96.6
12722;BME280;6425;50.316;8.114;2023-08-12T07:24:00;992;;;21.6;100
12722;BME280;6425;50.316;8.114;2023-08-12T07:27:00;992;;;21.6;100
12722;BME280;6425;50.316;8.114;2023-08-12T07:30:00;992;;;21.9;100
12722;BME280;6425;50.316;8.114;2023-08-12T07:33:00;992;;;22.3;100
12722;BME280;6425;50.316;8.114;2023-08-12T07:36:00;992;;;22.6;98.8
12722;BME280;6425;50.316;8.114;2023-08-12T07:39:00;992;;;22.1;99
12722;BME280;6425;50.316;8.114;2023-08-12T07:42:00;992;;;22.3;99.5
12722;BME280;6425;50.316;8.114;2023-08-12T07:45:00;992;;;22.5;98.7
12722;BME280;6425;50.316;8.114;2023-08-12T07:48:00;992;;;22.8;97.8
12722;BME280;6425;50.316;8.114;2023-08-12T07:51:00;992;;;22.9;93.9
12722;BME280;6425;50.316;8.114;2023-08-12T07:54:00;991;;;23;95.1
12722;BME280;6425;50.316;8.114;2023-08-12T07:57:00;991;;;23.1;95.9
12722;BME280;6425;50.316;8.114;2023-08-12T08:00:00;991;;;23.4;93.4
12722;BME280;6425;50.316;8.114;2023-08-12T08:03:00;991;;;23.6;92.1
12722;BME280;6425;50.316;8.114;2023-08-12T08:06:00;991;;;23.8;91.3
12722;BME280;6425;50.316;8.114;2023-08-12T08:09:00;991;;;24.5;88
12722;BME280;6425;50.316;8.114;2023-08-12T08:12:00;991;;;25;82.5
12722;BME280;6425;50.316;8.114;2023-08-12T08:15:00;991;;;23.9;81.3
12722;BME280;6425;50.316;8.114;2023-08-12T08:18:00;991;;;23.4;84
12722;BME280;6425;50.316;8.114;2023-08-12T08:21:00;991;;;22.5;92.6
12722;BME280;6425;50.316;8.114;2023-08-12T08:24:00;991;;;23.1;91.1
12722;BME280;6425;50.316;8.114;2023-08-12T08:27:00;991;;;22.7;92
12722;BME280;6425;50.316;8.114;2023-08-12T08:30:00;991;;;23.1;92.4
12722;BME280;6425;50.316;8.114;2023-08-12T08:33:00;991;;;23.9;89.9
12722;BME280;6425;50.316;8.114;2023-08-12T08:36:00;991;;;24.7;85.2
12722;BME280;6425;50.316;8.114;2023-08-12T08:39:00;991;;;23.6;92.8
12722;BME280;6425;50.316;8.114;2023-08-12T08:42:00;991;;;23.3;95.1
12722;BME280;6425;50.316;8.114;2023-08-12T08:45:00;991;;;24;95.1
12722;BME280;6425;50.316;8.114;2023-08-12T08:48:00;991;;;24.4;86.5
12722;BME280;6425;50.316;8.114;2023-08-12T08:51:00;991;;;24.7;80.1
12722;BME280;6425;50.316;8.114;2023-08-12T08:54:01;991;;;24.4;82.4
12722;BME280;6425;50.316;8.114;2023-08-12T08:57:00;991;;;24.4;81.6
12722;BME280;6425;50.316;8.114;2023-08-12T09:00:00;991;;;24.4;80.8
12722;BME280;6425;50.316;8.114;2023-08-12T09:03:00;991;;;24.5;79.7
12722;BME280;6425;50.316;8.114;2023-08-12T09:06:00;991;;;24.6;78.2
12722;BME280;6425;50.316;8.114;2023-08-12T09:09:00;991;;;24.5;81.1
12722;BME280;6425;50.316;8.114;2023-08-12T09:12:00;991;;;24.3;81.5
12722;BME280;6425;50.316;8.114;2023-08-12T09:15:00;991;;;24.5;81.7
12722;BME280;6425;50.316;8.114;2023-08-12T09:18:00;991;;;24.4;80.3
12722;BME280;6425;50.316;8.114;2023-08-12T09:21:00;991;;;24.3;81
12722;BME280;6425;50.316;8.114;2023-08-12T09:24:02;991;;;23.8;81.6
12722;BME280;6425;50.316;8.114;2023-08-12T09:27:00;991;;;23.6;83.7
12722;BME280;6425;50.316;8.114;2023-08-12T09:30:02;991;;;23.7;85.8
12722;BME280;6425;50.316;8.114;2023-08-12T09:33:00;991;;;23.8;84.7
12722;BME280;6425;50.316;8.114;2023-08-12T09:36:00;991;;;23.9;84.3
12722;BME280;6425;50.316;8.114;2023-08-12T09:39:00;991;;;23.5;83.4
12722;BME280;6425;50.316;8.114;2023-08-12T09:42:00;991;;;23.2;85.7
12722;BME280;6425;50.316;8.114;2023-08-12T09:45:00;991;;;23.1;88.8
12722;BME280;6425;50.316;8.114;2023-08-12T09:48:00;991;;;23.2;86.5
12722;BME280;6425;50.316;8.114;2023-08-12T09:51:00;991;;;23.4;86.5
12722;BME280;6425;50.316;8.114;2023-08-12T09:54:00;991;;;24;82.5
12722;BME280;6425;50.316;8.114;2023-08-12T09:57:00;991;;;24.7;78.2
12722;BME280;6425;50.316;8.114;2023-08-12T10:00:00;991;;;23.8;78.1
12722;BME280;6425;50.316;8.114;2023-08-12T10:03:00;991;;;22.9;83.1
12722;BME280;6425;50.316;8.114;2023-08-12T10:06:00;991;;;22.6;87
12722;BME280;6425;50.316;8.114;2023-08-12T10:09:00;991;;;22.3;89.2
12722;BME280;6425;50.316;8.114;2023-08-12T10:12:00;992;;;22;85.5
12722;BME280;6425;50.316;8.114;2023-08-12T10:15:00;992;;;21.8;87.2
12722;BME280;6425;50.316;8.114;2023-08-12T10:18:00;992;;;21.7;89.7
12722;BME280;6425;50.316;8.114;2023-08-12T10:21:00;992;;;21.6;91.6
12722;BME280;6425;50.316;8.114;2023-08-12T10:24:00;992;;;21.6;93.8
12722;BME280;6425;50.316;8.114;2023-08-12T10:27:00;992;;;21.8;93.1
12722;BME280;6425;50.316;8.114;2023-08-12T10:30:02;992;;;21.7;91.9
12722;BME280;6425;50.316;8.114;2023-08-12T10:33:00;992;;;21.4;93.3
12722;BME280;6425;50.316;8.114;2023-08-12T10:36:00;992;;;21.5;94.6
12722;BME280;6425;50.316;8.114;2023-08-12T10:39:00;992;;;21.5;96.2
12722;BME280;6425;50.316;8.114;2023-08-12T10:42:00;992;;;21.8;94.3
12722;BME280;6425;50.316;8.114;2023-08-12T10:45:00;991;;;22.1;93.2
12722;BME280;6425;50.316;8.114;2023-08-12T10:48:09;991;;;22.6;92.3
12722;BME280;6425;50.316;8.114;2023-08-12T10:51:00;991;;;22.9;89
12722;BME280;6425;50.316;8.114;2023-08-12T10:54:09;991;;;23.2;86.7
12722;BME280;6425;50.316;8.114;2023-08-12T10:57:07;991;;;23.7;84.2
12722;BME280;6425;50.316;8.114;2023-08-12T11:00:00;991;;;24.2;81.7
12722;BME280;6425;50.316;8.114;2023-08-12T11:03:00;991;;;24.8;79.1
12722;BME280;6425;50.316;8.114;2023-08-12T11:06:00;991;;;25.3;76.4
12722;BME280;6425;50.316;8.114;2023-08-12T11:09:00;991;;;24.9;76.2
12722;BME280;6425;50.316;8.114;2023-08-12T11:12:00;991;;;24.8;76.6
12722;BME280;6425;50.316;8.114;2023-08-12T11:15:00;991;;;24.7;77.9
12722;BME280;6425;50.316;8.114;2023-08-12T11:18:01;991;;;24.2;79.1
12722;BME280;6425;50.316;8.114;2023-08-12T11:21:00;991;;;23.4;83.3
12722;BME280;6425;50.316;8.114;2023-08-12T11:24:00;991;;;23.9;83.7
12722;BME280;6425;50.316;8.114;2023-08-12T11:27:00;991;;;24;81.9
12722;BME280;6425;50.316;8.114;2023-08-12T11:30:00;991;;;23.9;84
12722;BME280;6425;50.316;8.114;2023-08-12T11:33:00;990;;;24.3;79.4
12722;BME280;6425;50.316;8.114;2023-08-12T11:36:00;990;;;24.7;77.5
12722;BME280;6425;50.316;8.114;2023-08-12T11:39:00;990;;;25;76.5
12722;BME280;6425;50.316;8.114;2023-08-12T11:42:00;990;;;24.7;76.3
12722;BME280;6425;50.316;8.114;2023-08-12T11:45:00;991;;;23.8;80.5
12722;BME280;6425;50.316;8.114;2023-08-12T11:48:00;991;;;23.5;84.1
12722;BME280;6425;50.316;8.114;2023-08-12T11:51:00;991;;;24.4;82.7
12722;BME280;6425;50.316;8.114;2023-08-12T11:54:00;991;;;24.2;79.4
12722;BME280;6425;50.316;8.114;2023-08-12T11:57:00;991;;;23.7;82.2
12722;BME280;6425;50.316;8.114;2023-08-12T12:00:00;991;;;24.3;80.9
12722;BME280;6425;50.316;8.114;2023-08-12T12:03:00;991;;;24.6;78.6
12722;BME280;6425;50.316;8.114;2023-08-12T12:06:00;991;;;25.3;74.3
12722;BME280;6425;50.316;8.114;2023-08-12T12:09:00;991;;;25;73.9
12722;BME280;6425;50.316;8.114;2023-08-12T12:12:00;991;;;24.9;74.5
12722;BME280;6425;50.316;8.114;2023-08-12T12:15:00;991;;;24.8;75
12722;BME280;6425;50.316;8.114;2023-08-12T12:18:00;991;;;24.7;75.5
12722;BME280;6425;50.316;8.114;2023-08-12T12:21:00;991;;;24.3;76.8
12722;BME280;6425;50.316;8.114;2023-08-12T12:24:00;991;;;24.2;77.2
12722;BME280;6425;50.316;8.114;2023-08-12T12:27:00;991;;;23.8;81.8
12722;BME280;6425;50.316;8.114;2023-08-12T12:30:00;991;;;23.6;79.4
12722;BME280;6425;50.316;8.114;2023-08-12T12:33:00;991;;;23.7;77.8
12722;BME280;6425;50.316;8.114;2023-08-12T12:36:00;991;;;23.8;77
12722;BME280;6425;50.316;8.114;2023-08-12T12:39:00;991;;;24.2;75.9
12722;BME280;6425;50.316;8.114;2023-08-12T12:42:00;991;;;24.6;74.9
12722;BME280;6425;50.316;8.114;2023-08-12T12:45:00;991;;;24.6;73.4
12722;BME280;6425;50.316;8.114;2023-08-12T12:48:00;991;;;24.4;75.1
12722;BME280;6425;50.316;8.114;2023-08-12T12:51:00;991;;;24.1;75.1
12722;BME280;6425;50.316;8.114;2023-08-12T12:54:00;991;;;24;74
12722;BME280;6425;50.316;8.114;2023-08-12T12:57:00;991;;;23.8;76.4
12722;BME280;6425;50.316;8.114;2023-08-12T13:00:00;991;;;23.7;77.6
12722;BME280;6425;50.316;8.114;2023-08-12T13:03:00;991;;;24.2;76.7
12722;BME280;6425;50.316;8.114;2023-08-12T13:06:00;991;;;24.7;74.1
12722;BME280;6425;50.316;8.114;2023-08-12T13:09:00;991;;;24.4;73.9
12722;BME280;6425;50.316;8.114;2023-08-12T13:12:00;991;;;24.4;75
12722;BME280;6425;50.316;8.114;2023-08-12T13:15:00;990;;;25.2;72.6
12722;BME280;6425;50.316;8.114;2023-08-12T13:18:00;990;;;26;67.7
12722;BME280;6425;50.316;8.114;2023-08-12T13:21:00;991;;;25.6;69.6
12722;BME280;6425;50.316;8.114;2023-08-12T13:24:00;990;;;26.1;67.8
12722;BME280;6425;50.316;8.114;2023-08-12T13:27:00;991;;;26.5;66.8
12722;BME280;6425;50.316;8.114;2023-08-12T13:30:00;991;;;26.5;65.2
12722;BME280;6425;50.316;8.114;2023-08-12T13:33:00;990;;;26.4;62.5
12722;BME280;6425;50.316;8.114;2023-08-12T13:36:00;990;;;26.4;66.7
12722;BME280;6425;50.316;8.114;2023-08-12T13:39:00;990;;;26.4;64.9
12722;BME280;6425;50.316;8.114;2023-08-12T13:42:00;991;;;26.4;64.8
12722;BME280;6425;50.316;8.114;2023-08-12T13:45:00;991;;;25.2;66.8
12722;BME280;6425;50.316;8.114;2023-08-12T13:48:00;990;;;25.4;67.7
12722;BME280;6425;50.316;8.114;2023-08-12T13:51:00;991;;;25;69.4
12722;BME280;6425;50.316;8.114;2023-08-12T13:54:00;990;;;25.3;70.8
12722;BME280;6425;50.316;8.114;2023-08-12T13:57:00;990;;;25.4;69.3
12722;BME280;6425;50.316;8.114;2023-08-12T14:00:00;990;;;25.5;68.8
12722;BME280;6425;50.316;8.114;2023-08-12T14:03:00;991;;;25.3;69.3
12722;BME280;6425;50.316;8.114;2023-08-12T14:06:00;991;;;25;70.4
12722;BME280;6425;50.316;8.114;2023-08-12T14:09:00;991;;;24.8;71.2
12722;BME280;6425;50.316;8.114;2023-08-12T14:12:00;991;;;24.5;73.5
12722;BME280;6425;50.316;8.114;2023-08-12T14:15:00;991;;;24.4;72.5
12722;BME280;6425;50.316;8.114;2023-08-12T14:18:00;990;;;24.4;70.1
12722;BME280;6425;50.316;8.114;2023-08-12T14:21:00;991;;;24.2;69.3
12722;BME280;6425;50.316;8.114;2023-08-12T14:24:00;990;;;24.1;70.9
12722;BME280;6425;50.316;8.114;2023-08-12T14:27:00;990;;;24;72
12722;BME280;6425;50.316;8.114;2023-08-12T14:30:00;991;;;23.9;73.5
12722;BME280;6425;50.316;8.114;2023-08-12T14:33:00;991;;;23.8;71.8
12722;BME280;6425;50.316;8.114;2023-08-12T14:36:00;990;;;23.7;71.8
12722;BME280;6425;50.316;8.114;2023-08-12T14:39:00;990;;;23.7;72.2
12722;BME280;6425;50.316;8.114;2023-08-12T14:42:00;991;;;23.7;72.8
12722;BME280;6425;50.316;8.114;2023-08-12T14:45:00;990;;;23.7;71.1
12722;BME280;6425;50.316;8.114;2023-08-12T14:48:00;990;;;23.8;70.9
12722;BME280;6425;50.316;8.114;2023-08-12T14:51:00;990;;;24;71
12722;BME280;6425;50.316;8.114;2023-08-12T14:54:00;990;;;24.2;70.3
12722;BME280;6425;50.316;8.114;2023-08-12T14:57:00;990;;;24;70.3
12722;BME280;6425;50.316;8.114;2023-08-12T15:00:00;990;;;24;70.2
12722;BME280;6425;50.316;8.114;2023-08-12T15:03:00;990;;;23.7;71.4
12722;BME280;6425;50.316;8.114;2023-08-12T15:06:00;990;;;23.6;70.4
12722;BME280;6425;50.316;8.114;2023-08-12T15:09:00;990;;;23.5;70.6
12722;BME280;6425;50.316;8.114;2023-08-12T15:12:00;990;;;23.5;71.6
12722;BME280;6425;50.316;8.114;2023-08-12T15:15:00;990;;;23.3;71.8
12722;BME280;6425;50.316;8.114;2023-08-12T15:18:00;990;;;23.3;72.1
12722;BME280;6425;50.316;8.114;2023-08-12T15:21:00;990;;;23.3;72.4
12722;BME280;6425;50.316;8.114;2023-08-12T15:24:00;990;;;23.3;72.2
12722;BME280;6425;50.316;8.114;2023-08-12T15:27:00;990;;;23.3;72.9
12722;BME280;6425;50.316;8.114;2023-08-12T15:30:00;990;;;23.3;72.7
12722;BME280;6425;50.316;8.114;2023-08-12T15:33:00;990;;;23.3;72.9
12722;BME280;6425;50.316;8.114;2023-08-12T15:36:00;990;;;23.2;73.1
12722;BME280;6425;50.316;8.114;2023-08-12T15:39:00;990;;;23.2;73.6
12722;BME280;6425;50.316;8.114;2023-08-12T15:42:00;990;;;23.1;73.6
12722;BME280;6425;50.316;8.114;2023-08-12T15:45:00;990;;;23.1;74.2
12722;BME280;6425;50.316;8.114;2023-08-12T15:48:00;990;;;22.9;74.4
12722;BME280;6425;50.316;8.114;2023-08-12T15:51:00;990;;;23.1;74.4
12722;BME280;6425;50.316;8.114;2023-08-12T15:54:00;990;;;23.1;74.4
12722;BME280;6425;50.316;8.114;2023-08-12T15:57:00;990;;;22.9;75.1
12722;BME280;6425;50.316;8.114;2023-08-12T16:00:00;991;;;22.8;75.7
12722;BME280;6425;50.316;8.114;2023-08-12T16:03:00;990;;;22.8;76.1
12722;BME280;6425;50.316;8.114;2023-08-12T16:06:00;990;;;22.8;75.7
12722;BME280;6425;50.316;8.114;2023-08-12T16:09:00;990;;;22.9;76.5
12722;BME280;6425;50.316;8.114;2023-08-12T16:12:00;990;;;22.9;76.3
12722;BME280;6425;50.316;8.114;2023-08-12T16:15:00;990;;;22.8;76.3
12722;BME280;6425;50.316;8.114;2023-08-12T16:18:00;990;;;22.7;76.5
12722;BME280;6425;50.316;8.114;2023-08-12T16:21:00;990;;;22.8;77.2
12722;BME280;6425;50.316;8.114;2023-08-12T16:24:00;990;;;22.7;76.2
12722;BME280;6425;50.316;8.114;2023-08-12T16:27:00;990;;;22.6;77.5
12722;BME280;6425;50.316;8.114;2023-08-12T16:30:00;991;;;22.7;78
12722;BME280;6425;50.316;8.114;2023-08-12T16:33:00;990;;;23;77.6
12722;BME280;6425;50.316;8.114;2023-08-12T16:36:00;990;;;23.2;75.7
12722;BME280;6425;50.316;8.114;2023-08-12T16:39:00;991;;;23.1;76.2
12722;BME280;6425;50.316;8.114;2023-08-12T16:42:00;991;;;23.2;76.6
12722;BME280;6425;50.316;8.114;2023-08-12T16:45:00;991;;;23.2;75.8
12722;BME280;6425;50.316;8.114;2023-08-12T16:48:00;991;;;23.5;75.9
12722;BME280;6425;50.316;8.114;2023-08-12T16:51:00;991;;;22.8;76.9
12722;BME280;6425;50.316;8.114;2023-08-12T16:54:00;991;;;22.4;80.3
12722;BME280;6425;50.316;8.114;2023-08-12T16:57:00;991;;;22.4;80.4
12722;BME280;6425;50.316;8.114;2023-08-12T17:00:00;991;;;22.1;82.5
12722;BME280;6425;50.316;8.114;2023-08-12T17:03:00;991;;;22.1;83.4
12722;BME280;6425;50.316;8.114;2023-08-12T17:06:00;991;;;22.1;83.3
12722;BME280;6425;50.316;8.114;2023-08-12T17:09:00;991;;;22.3;83.1
12722;BME280;6425;50.316;8.114;2023-08-12T17:12:00;991;;;22.8;81
12722;BME280;6425;50.316;8.114;2023-08-12T17:15:00;991;;;23;79.1
12722;BME280;6425;50.316;8.114;2023-08-12T17:18:01;991;;;23.4;77.2
12722;BME280;6425;50.316;8.114;2023-08-12T17:21:00;991;;;23.5;77.8
12722;BME280;6425;50.316;8.114;2023-08-12T17:24:00;991;;;23.3;78.2
12722;BME280;6425;50.316;8.114;2023-08-12T17:27:00;991;;;23.1;78.8
12722;BME280;6425;50.316;8.114;2023-08-12T17:30:00;991;;;22.9;79.2
12722;BME280;6425;50.316;8.114;2023-08-12T17:33:00;991;;;22.7;80.4
12722;BME280;6425;50.316;8.114;2023-08-12T17:36:00;991;;;22.7;81.2
12722;BME280;6425;50.316;8.114;2023-08-12T17:39:00;991;;;22.7;80.7
12722;BME280;6425;50.316;8.114;2023-08-12T17:42:00;991;;;22.8;80.3
12722;BME280;6425;50.316;8.114;2023-08-12T17:45:00;991;;;23.2;78.4
12722;BME280;6425;50.316;8.114;2023-08-12T17:48:00;991;;;23.2;78
12722;BME280;6425;50.316;8.114;2023-08-12T17:51:00;991;;;23.1;77.3
12722;BME280;6425;50.316;8.114;2023-08-12T17:54:00;991;;;22.6;79.1